sensor_id;sensor_type;location;lat;lon;timestamp;pressure;altitude;pressure_sealevel;temperature;humidity
49063;BME280;34876;51.464;-0.150;2023-06-26T00:00:09;101514.70;;;26.34;43.73
49063;BME280;34876;51.464;-0.150;2023-06-26T00:03:30;101514.78;;;26.35;43.66
49063;BME280;34876;51.464;-0.150;2023-06-26T00:06:00;101517.29;;;26.35;43.68
49063;BME280;34876;51.464;-0.150;2023-06-26T00:08:28;101516.90;;;26.32;43.66
49063;BME280;34876;51.464;-0.150;2023-06-26T00:10:58;101516.52;;;26.32;43.73
49063;BME280;34876;51.464;-0.150;2023-06-26T00:13:27;101519.23;;;26.31;43.40
49063;BME280;34876;51.464;-0.150;2023-06-26T00:15:55;101522.22;;;26.31;43.65
49063;BME280;34876;51.464;-0.150;2023-06-26T00:18:24;101523.24;;;26.32;43.61
49063;BME280;34876;51.464;-0.150;2023-06-26T00:20:53;101525.47;;;26.28;43.65
49063;BME280;34876;51.464;-0.150;2023-06-26T00:23:23;101524.46;;;26.30;43.60
49063;BME280;34876;51.464;-0.150;2023-06-26T00:25:52;101528.08;;;26.30;43.59
49063;BME280;34876;51.464;-0.150;2023-06-26T00:28:20;101531.81;;;26.19;43.83
49063;BME280;34876;51.464;-0.150;2023-06-26T00:30:51;101538.61;;;26.28;43.60
49063;BME280;34876;51.464;-0.150;2023-06-26T00:33:21;101537.38;;;26.27;43.58
49063;BME280;34876;51.464;-0.150;2023-06-26T00:35:50;101535.44;;;26.17;43.59
49063;BME280;34876;51.464;-0.150;2023-06-26T00:38:21;101538.55;;;26.28;43.52
49063;BME280;34876;51.464;-0.150;2023-06-26T00:40:50;101539.35;;;26.28;43.48
49063;BME280;34876;51.464;-0.150;2023-06-26T00:43:19;101542.76;;;26.29;43.46
49063;BME280;34876;51.464;-0.150;2023-06-26T00:45:47;101544.65;;;26.05;43.91
49063;BME280;34876;51.464;-0.150;2023-06-26T00:48:16;101545.96;;;26.24;43.54
49063;BME280;34876;51.464;-0.150;2023-06-26T00:50:46;101549.38;;;26.24;43.52
49063;BME280;34876;51.464;-0.150;2023-06-26T00:53:15;101545.47;;;26.24;43.47
49063;BME280;34876;51.464;-0.150;2023-06-26T00:55:44;101547.49;;;26.27;43.42
49063;BME280;34876;51.464;-0.150;2023-06-26T00:58:14;101550.32;;;26.26;43.41
49063;BME280;34876;51.464;-0.150;2023-06-26T01:00:42;101550.72;;;26.25;43.42
49063;BME280;34876;51.464;-0.150;2023-06-26T01:03:12;101553.59;;;26.25;43.40
49063;BME280;34876;51.464;-0.150;2023-06-26T01:05:41;101553.36;;;26.25;43.38
49063;BME280;34876;51.464;-0.150;2023-06-26T01:08:11;101561.65;;;26.22;43.43
49063;BME280;34876;51.464;-0.150;2023-06-26T01:10:41;101563.19;;;26.09;43.48
49063;BME280;34876;51.464;-0.150;2023-06-26T01:13:11;101571.39;;;26.15;43.56
49063;BME280;34876;51.464;-0.150;2023-06-26T01:15:40;101571.23;;;26.22;43.41
49063;BME280;34876;51.464;-0.150;2023-06-26T01:18:10;101573.23;;;26.19;43.46
49063;BME280;34876;51.464;-0.150;2023-06-26T01:20:41;101573.25;;;26.20;43.34
49063;BME280;34876;51.464;-0.150;2023-06-26T01:23:15;101573.58;;;26.21;43.33
49063;BME280;34876;51.464;-0.150;2023-06-26T01:28:29;101583.00;;;26.20;43.32
49063;BME280;34876;51.464;-0.150;2023-06-26T01:30:59;101584.86;;;26.20;43.26
49063;BME280;34876;51.464;-0.150;2023-06-26T01:33:30;101588.74;;;26.18;43.31
49063;BME280;34876;51.464;-0.150;2023-06-26T01:35:59;101589.70;;;26.18;43.28
49063;BME280;34876;51.464;-0.150;2023-06-26T01:38:28;101591.13;;;26.19;43.24
49063;BME280;34876;51.464;-0.150;2023-06-26T01:40:57;101592.22;;;26.18;43.29
49063;BME280;34876;51.464;-0.150;2023-06-26T01:43:31;101593.16;;;26.16;43.28
49063;BME280;34876;51.464;-0.150;2023-06-26T01:46:06;101598.18;;;26.14;43.26
49063;BME280;34876;51.464;-0.150;2023-06-26T01:48:43;101600.08;;;26.17;43.20
49063;BME280;34876;51.464;-0.150;2023-06-26T01:51:17;101602.77;;;26.14;43.29
49063;BME280;34876;51.464;-0.150;2023-06-26T01:53:54;101600.57;;;26.15;43.24
49063;BME280;34876;51.464;-0.150;2023-06-26T01:56:25;101601.19;;;26.14;43.19
49063;BME280;34876;51.464;-0.150;2023-06-26T01:58:55;101600.80;;;26.14;43.24
49063;BME280;34876;51.464;-0.150;2023-06-26T02:01:26;101599.73;;;26.13;43.25
49063;BME280;34876;51.464;-0.150;2023-06-26T02:03:56;101600.20;;;26.15;43.19
49063;BME280;34876;51.464;-0.150;2023-06-26T02:06:25;101601.81;;;26.12;43.19
49063;BME280;34876;51.464;-0.150;2023-06-26T02:08:53;101604.75;;;26.11;43.25
49063;BME280;34876;51.464;-0.150;2023-06-26T02:11:23;101606.95;;;26.12;43.18
49063;BME280;34876;51.464;-0.150;2023-06-26T02:13:52;101610.35;;;26.09;43.22
49063;BME280;34876;51.464;-0.150;2023-06-26T02:16:21;101608.61;;;26.10;43.18
49063;BME280;34876;51.464;-0.150;2023-06-26T02:18:50;101610.76;;;26.11;43.14
49063;BME280;34876;51.464;-0.150;2023-06-26T02:21:19;101610.01;;;26.10;43.16
49063;BME280;34876;51.464;-0.150;2023-06-26T02:23:48;101616.43;;;26.11;43.12
49063;BME280;34876;51.464;-0.150;2023-06-26T02:26:17;101619.30;;;26.08;43.14
49063;BME280;34876;51.464;-0.150;2023-06-26T02:28:46;101618.65;;;26.08;43.15
49063;BME280;34876;51.464;-0.150;2023-06-26T02:31:14;101615.98;;;26.05;43.23
49063;BME280;34876;51.464;-0.150;2023-06-26T02:33:44;101618.44;;;26.06;43.21
49063;BME280;34876;51.464;-0.150;2023-06-26T02:36:12;101620.83;;;26.05;43.20
49063;BME280;34876;51.464;-0.150;2023-06-26T02:38:41;101620.00;;;26.04;43.22
49063;BME280;34876;51.464;-0.150;2023-06-26T02:41:09;101621.61;;;26.05;43.22
49063;BME280;34876;51.464;-0.150;2023-06-26T02:43:38;101622.29;;;26.04;43.17
49063;BME280;34876;51.464;-0.150;2023-06-26T02:46:07;101623.87;;;26.03;43.19
49063;BME280;34876;51.464;-0.150;2023-06-26T02:48:36;101630.34;;;26.03;43.18
49063;BME280;34876;51.464;-0.150;2023-06-26T02:51:05;101632.20;;;26.03;43.20
49063;BME280;34876;51.464;-0.150;2023-06-26T02:53:35;101636.61;;;26.01;43.19
49063;BME280;34876;51.464;-0.150;2023-06-26T02:56:04;101636.79;;;26.01;43.13
49063;BME280;34876;51.464;-0.150;2023-06-26T02:58:33;101639.57;;;26.01;43.17
49063;BME280;34876;51.464;-0.150;2023-06-26T03:01:02;101642.53;;;26.01;43.12
49063;BME280;34876;51.464;-0.150;2023-06-26T03:03:31;101644.06;;;26.00;43.13
49063;BME280;34876;51.464;-0.150;2023-06-26T03:06:00;101647.22;;;25.99;43.20
49063;BME280;34876;51.464;-0.150;2023-06-26T03:08:29;101650.97;;;25.97;43.20
49063;BME280;34876;51.464;-0.150;2023-06-26T03:10:58;101651.21;;;25.97;43.18
49063;BME280;34876;51.464;-0.150;2023-06-26T03:13:27;101651.40;;;25.97;43.18
49063;BME280;34876;51.464;-0.150;2023-06-26T03:15:56;101649.22;;;25.96;43.15
49063;BME280;34876;51.464;-0.150;2023-06-26T03:18:25;101647.44;;;25.96;43.17
49063;BME280;34876;51.464;-0.150;2023-06-26T03:20:56;101648.69;;;25.94;43.19
49063;BME280;34876;51.464;-0.150;2023-06-26T03:23:25;101653.33;;;25.96;43.12
49063;BME280;34876;51.464;-0.150;2023-06-26T03:25:55;101652.72;;;25.94;43.14
49063;BME280;34876;51.464;-0.150;2023-06-26T03:28:24;101655.69;;;25.93;43.18
49063;BME280;34876;51.464;-0.150;2023-06-26T03:30:53;101657.47;;;25.95;43.12
49063;BME280;34876;51.464;-0.150;2023-06-26T03:33:21;101658.04;;;25.93;43.09
49063;BME280;34876;51.464;-0.150;2023-06-26T03:35:50;101657.90;;;25.93;43.08
49063;BME280;34876;51.464;-0.150;2023-06-26T03:38:21;101662.38;;;25.91;43.16
49063;BME280;34876;51.464;-0.150;2023-06-26T03:40:50;101666.54;;;25.91;43.12
49063;BME280;34876;51.464;-0.150;2023-06-26T03:43:20;101669.10;;;25.90;43.11
49063;BME280;34876;51.464;-0.150;2023-06-26T03:45:49;101672.32;;;25.90;43.10
49063;BME280;34876;51.464;-0.150;2023-06-26T03:48:18;101671.53;;;25.88;43.08
49063;BME280;34876;51.464;-0.150;2023-06-26T03:50:48;101674.96;;;25.89;43.11
49063;BME280;34876;51.464;-0.150;2023-06-26T03:53:18;101678.71;;;25.88;43.10
49063;BME280;34876;51.464;-0.150;2023-06-26T03:55:47;101679.21;;;25.86;43.15
49063;BME280;34876;51.464;-0.150;2023-06-26T03:58:17;101681.68;;;25.87;43.12
49063;BME280;34876;51.464;-0.150;2023-06-26T04:00:46;101686.69;;;25.86;43.13
49063;BME280;34876;51.464;-0.150;2023-06-26T04:03:15;101682.90;;;25.85;43.13
49063;BME280;34876;51.464;-0.150;2023-06-26T04:05:44;101687.06;;;25.87;43.06
49063;BME280;34876;51.464;-0.150;2023-06-26T04:08:14;101689.51;;;25.86;43.05
49063;BME280;34876;51.464;-0.150;2023-06-26T04:10:43;101689.84;;;25.83;43.10
49063;BME280;34876;51.464;-0.150;2023-06-26T04:13:13;101686.25;;;25.85;43.08
49063;BME280;34876;51.464;-0.150;2023-06-26T04:15:42;101683.17;;;25.82;43.11
49063;BME280;34876;51.464;-0.150;2023-06-26T04:18:11;101683.65;;;25.82;43.12
49063;BME280;34876;51.464;-0.150;2023-06-26T04:23:28;101684.82;;;25.80;43.16
49063;BME280;34876;51.464;-0.150;2023-06-26T04:25:56;101686.13;;;25.81;43.11
49063;BME280;34876;51.464;-0.150;2023-06-26T04:28:26;101694.82;;;25.80;43.14
49063;BME280;34876;51.464;-0.150;2023-06-26T04:30:57;101700.57;;;25.82;43.06
49063;BME280;34876;51.464;-0.150;2023-06-26T04:33:26;101706.23;;;25.82;43.06
49063;BME280;34876;51.464;-0.150;2023-06-26T04:35:55;101714.41;;;25.81;43.06
49063;BME280;34876;51.464;-0.150;2023-06-26T04:38:25;101707.28;;;25.80;43.08
49063;BME280;34876;51.464;-0.150;2023-06-26T04:40:54;101705.23;;;25.81;43.06
49063;BME280;34876;51.464;-0.150;2023-06-26T04:43:23;101704.16;;;25.78;43.07
49063;BME280;34876;51.464;-0.150;2023-06-26T04:45:52;101707.76;;;25.78;43.12
49063;BME280;34876;51.464;-0.150;2023-06-26T04:48:22;101711.49;;;25.81;43.01
49063;BME280;34876;51.464;-0.150;2023-06-26T04:50:51;101712.48;;;25.81;43.00
49063;BME280;34876;51.464;-0.150;2023-06-26T04:53:20;101717.46;;;25.80;43.00
49063;BME280;34876;51.464;-0.150;2023-06-26T04:55:54;101723.66;;;25.81;42.94
49063;BME280;34876;51.464;-0.150;2023-06-26T04:58:24;101726.41;;;25.84;42.94
49063;BME280;34876;51.464;-0.150;2023-06-26T05:00:53;101728.95;;;25.82;42.89
49063;BME280;34876;51.464;-0.150;2023-06-26T05:03:22;101726.38;;;25.82;42.86
49063;BME280;34876;51.464;-0.150;2023-06-26T05:05:51;101730.71;;;25.83;42.81
49063;BME280;34876;51.464;-0.150;2023-06-26T05:08:22;101731.42;;;25.81;42.87
49063;BME280;34876;51.464;-0.150;2023-06-26T05:10:52;101725.23;;;25.85;42.79
49063;BME280;34876;51.464;-0.150;2023-06-26T05:13:22;101729.18;;;25.84;42.77
49063;BME280;34876;51.464;-0.150;2023-06-26T05:15:52;101731.96;;;25.79;42.88
49063;BME280;34876;51.464;-0.150;2023-06-26T05:18:22;101737.74;;;25.82;42.82
49063;BME280;34876;51.464;-0.150;2023-06-26T05:20:52;101738.14;;;25.83;42.76
49063;BME280;34876;51.464;-0.150;2023-06-26T05:23:21;101739.93;;;25.81;42.81
49063;BME280;34876;51.464;-0.150;2023-06-26T05:25:52;101741.86;;;25.82;42.80
49063;BME280;34876;51.464;-0.150;2023-06-26T05:28:22;101746.80;;;25.83;42.74
49063;BME280;34876;51.464;-0.150;2023-06-26T05:30:51;101746.34;;;25.81;42.82
49063;BME280;34876;51.464;-0.150;2023-06-26T05:33:24;101749.61;;;25.89;42.62
49063;BME280;34876;51.464;-0.150;2023-06-26T05:35:54;101756.68;;;25.89;42.57
49063;BME280;34876;51.464;-0.150;2023-06-26T05:38:24;101768.13;;;25.84;42.72
49063;BME280;34876;51.464;-0.150;2023-06-26T05:40:54;101775.31;;;25.86;42.64
49063;BME280;34876;51.464;-0.150;2023-06-26T05:43:23;101771.18;;;25.85;42.68
49063;BME280;34876;51.464;-0.150;2023-06-26T05:45:53;101767.45;;;25.84;42.68
49063;BME280;34876;51.464;-0.150;2023-06-26T05:48:22;101759.11;;;25.85;42.64
49063;BME280;34876;51.464;-0.150;2023-06-26T05:50:52;101756.77;;;25.88;42.56
49063;BME280;34876;51.464;-0.150;2023-06-26T05:53:22;101762.59;;;25.87;42.52
49063;BME280;34876;51.464;-0.150;2023-06-26T05:55:53;101761.93;;;25.90;42.53
49063;BME280;34876;51.464;-0.150;2023-06-26T05:58:24;101758.19;;;25.89;42.55
49063;BME280;34876;51.464;-0.150;2023-06-26T06:00:54;101762.16;;;25.88;42.54
49063;BME280;34876;51.464;-0.150;2023-06-26T06:03:23;101759.54;;;25.84;42.53
49063;BME280;34876;51.464;-0.150;2023-06-26T06:05:54;101757.95;;;25.90;42.43
49063;BME280;34876;51.464;-0.150;2023-06-26T06:08:24;101762.59;;;25.87;42.53
49063;BME280;34876;51.464;-0.150;2023-06-26T06:10:53;101766.71;;;25.90;42.44
49063;BME280;34876;51.464;-0.150;2023-06-26T06:13:23;101764.29;;;25.90;42.44
49063;BME280;34876;51.464;-0.150;2023-06-26T06:15:53;101763.41;;;25.70;42.76
49063;BME280;34876;51.464;-0.150;2023-06-26T06:18:21;101765.18;;;25.89;42.47
49063;BME280;34876;51.464;-0.150;2023-06-26T06:20:50;101765.73;;;25.93;42.35
49063;BME280;34876;51.464;-0.150;2023-06-26T06:23:19;101768.60;;;25.79;42.58
49063;BME280;34876;51.464;-0.150;2023-06-26T06:25:48;101772.85;;;25.87;42.40
49063;BME280;34876;51.464;-0.150;2023-06-26T06:28:17;101781.35;;;25.81;42.48
49063;BME280;34876;51.464;-0.150;2023-06-26T06:30:46;101783.96;;;25.84;42.51
49063;BME280;34876;51.464;-0.150;2023-06-26T06:33:20;101785.66;;;25.83;42.52
49063;BME280;34876;51.464;-0.150;2023-06-26T06:35:50;101792.60;;;25.81;42.62
49063;BME280;34876;51.464;-0.150;2023-06-26T06:38:19;101796.96;;;25.82;42.57
49063;BME280;34876;51.464;-0.150;2023-06-26T06:40:48;101799.94;;;25.82;42.56
49063;BME280;34876;51.464;-0.150;2023-06-26T06:43:17;101795.98;;;25.91;42.32
49063;BME280;34876;51.464;-0.150;2023-06-26T06:45:46;101794.29;;;25.98;42.18
49063;BME280;34876;51.464;-0.150;2023-06-26T06:48:15;101792.57;;;26.00;42.11
49063;BME280;34876;51.464;-0.150;2023-06-26T06:50:45;101791.19;;;25.91;42.33
49063;BME280;34876;51.464;-0.150;2023-06-26T06:53:14;101801.76;;;25.86;41.30
49063;BME280;34876;51.464;-0.150;2023-06-26T06:55:43;101812.49;;;26.08;41.93
49063;BME280;34876;51.464;-0.150;2023-06-26T06:58:12;101811.36;;;26.04;42.00
49063;BME280;34876;51.464;-0.150;2023-06-26T07:00:40;101812.90;;;26.02;41.94
49063;BME280;34876;51.464;-0.150;2023-06-26T07:03:10;101816.71;;;26.17;41.67
49063;BME280;34876;51.464;-0.150;2023-06-26T07:05:41;101822.75;;;26.59;40.74
49063;BME280;34876;51.464;-0.150;2023-06-26T07:08:12;101818.84;;;26.37;41.11
49063;BME280;34876;51.464;-0.150;2023-06-26T07:10:41;101815.23;;;26.15;41.62
49063;BME280;34876;51.464;-0.150;2023-06-26T07:13:12;101814.28;;;25.99;41.82
49063;BME280;34876;51.464;-0.150;2023-06-26T07:15:40;101821.00;;;26.01;41.98
49063;BME280;34876;51.464;-0.150;2023-06-26T07:18:09;101822.02;;;26.02;41.94
49063;BME280;34876;51.464;-0.150;2023-06-26T07:20:38;101819.05;;;26.05;41.82
49063;BME280;34876;51.464;-0.150;2023-06-26T07:23:08;101817.02;;;25.98;40.76
49063;BME280;34876;51.464;-0.150;2023-06-26T07:25:38;101829.35;;;26.03;41.86
49063;BME280;34876;51.464;-0.150;2023-06-26T07:28:11;101834.11;;;25.99;42.08
49063;BME280;34876;51.464;-0.150;2023-06-26T07:30:40;101845.78;;;26.02;41.98
49063;BME280;34876;51.464;-0.150;2023-06-26T07:33:09;101843.74;;;25.99;42.04
49063;BME280;34876;51.464;-0.150;2023-06-26T07:35:38;101833.07;;;26.01;41.97
49063;BME280;34876;51.464;-0.150;2023-06-26T07:38:07;101835.21;;;26.06;41.86
49063;BME280;34876;51.464;-0.150;2023-06-26T07:40:36;101838.04;;;26.00;41.99
49063;BME280;34876;51.464;-0.150;2023-06-26T07:43:06;101838.48;;;25.96;42.06
49063;BME280;34876;51.464;-0.150;2023-06-26T07:45:35;101842.60;;;25.94;42.04
49063;BME280;34876;51.464;-0.150;2023-06-26T07:48:05;101847.52;;;25.69;42.70
49063;BME280;34876;51.464;-0.150;2023-06-26T07:50:34;101847.66;;;25.86;42.25
49063;BME280;34876;51.464;-0.150;2023-06-26T07:53:04;101850.50;;;25.97;41.99
49063;BME280;34876;51.464;-0.150;2023-06-26T07:55:33;101846.13;;;25.94;42.06
49063;BME280;34876;51.464;-0.150;2023-06-26T07:58:03;101845.95;;;26.03;41.89
49063;BME280;34876;51.464;-0.150;2023-06-26T08:00:33;101844.59;;;25.98;41.98
49063;BME280;34876;51.464;-0.150;2023-06-26T08:03:03;101854.50;;;25.96;42.04
49063;BME280;34876;51.464;-0.150;2023-06-26T08:05:32;101857.62;;;26.03;41.89
49063;BME280;34876;51.464;-0.150;2023-06-26T08:08:02;101859.74;;;26.05;41.86
49063;BME280;34876;51.464;-0.150;2023-06-26T08:10:31;101857.12;;;26.00;41.91
49063;BME280;34876;51.464;-0.150;2023-06-26T08:13:02;101863.41;;;25.94;42.05
49063;BME280;34876;51.464;-0.150;2023-06-26T08:15:31;101861.99;;;25.88;42.08
49063;BME280;34876;51.464;-0.150;2023-06-26T08:18:00;101854.61;;;25.82;42.42
49063;BME280;34876;51.464;-0.150;2023-06-26T08:20:30;101858.26;;;25.86;42.44
49063;BME280;34876;51.464;-0.150;2023-06-26T08:22:59;101858.97;;;25.96;42.17
49063;BME280;34876;51.464;-0.150;2023-06-26T08:25:29;101872.75;;;25.99;42.10
49063;BME280;34876;51.464;-0.150;2023-06-26T08:27:59;101868.40;;;26.04;41.84
49063;BME280;34876;51.464;-0.150;2023-06-26T08:30:28;101867.71;;;25.90;42.17
49063;BME280;34876;51.464;-0.150;2023-06-26T08:32:57;101859.60;;;25.93;42.13
49063;BME280;34876;51.464;-0.150;2023-06-26T08:35:26;101859.92;;;26.01;41.97
49063;BME280;34876;51.464;-0.150;2023-06-26T08:37:56;101857.76;;;25.95;42.04
49063;BME280;34876;51.464;-0.150;2023-06-26T08:40:25;101849.55;;;26.00;41.68
49063;BME280;34876;51.464;-0.150;2023-06-26T08:42:55;101848.90;;;26.07;41.78
49063;BME280;34876;51.464;-0.150;2023-06-26T08:45:25;101855.75;;;25.76;41.91
49063;BME280;34876;51.464;-0.150;2023-06-26T08:47:55;101862.31;;;25.79;42.26
49063;BME280;34876;51.464;-0.150;2023-06-26T08:50:30;101870.31;;;25.37;35.25
49063;BME280;34876;51.464;-0.150;2023-06-26T08:53:08;101867.49;;;25.92;41.96
49063;BME280;34876;51.464;-0.150;2023-06-26T08:55:41;101869.00;;;25.68;39.10
49063;BME280;34876;51.464;-0.150;2023-06-26T08:58:12;101873.16;;;25.64;42.42
49063;BME280;34876;51.464;-0.150;2023-06-26T09:00:41;101876.23;;;25.67;42.26
49063;BME280;34876;51.464;-0.150;2023-06-26T09:03:13;101877.14;;;25.74;41.62
49063;BME280;34876;51.464;-0.150;2023-06-26T09:05:43;101870.97;;;25.71;42.35
49063;BME280;34876;51.464;-0.150;2023-06-26T09:08:12;101873.09;;;25.74;39.94
49063;BME280;34876;51.464;-0.150;2023-06-26T09:10:42;101874.70;;;25.98;41.55
49063;BME280;34876;51.464;-0.150;2023-06-26T09:13:12;101875.98;;;26.03;41.51
49063;BME280;34876;51.464;-0.150;2023-06-26T09:15:44;101876.95;;;25.48;34.15
49063;BME280;34876;51.464;-0.150;2023-06-26T09:18:14;101883.24;;;25.90;41.66
49063;BME280;34876;51.464;-0.150;2023-06-26T09:20:45;101891.66;;;25.54;42.44
49063;BME280;34876;51.464;-0.150;2023-06-26T09:23:15;101899.18;;;25.86;41.78
49063;BME280;34876;51.464;-0.150;2023-06-26T09:25:47;101894.53;;;25.93;41.81
49063;BME280;34876;51.464;-0.150;2023-06-26T09:28:16;101895.64;;;25.89;39.76
49063;BME280;34876;51.464;-0.150;2023-06-26T09:30:46;101901.76;;;26.10;41.17
49063;BME280;34876;51.464;-0.150;2023-06-26T09:33:16;101899.54;;;26.20;41.06
49063;BME280;34876;51.464;-0.150;2023-06-26T09:35:47;101898.52;;;26.31;35.14
49063;BME280;34876;51.464;-0.150;2023-06-26T09:38:16;101900.04;;;25.55;38.96
49063;BME280;34876;51.464;-0.150;2023-06-26T09:40:45;101899.34;;;26.01;41.46
49063;BME280;34876;51.464;-0.150;2023-06-26T09:43:14;101896.24;;;26.14;40.89
49063;BME280;34876;51.464;-0.150;2023-06-26T09:45:43;101894.85;;;26.04;38.65
49063;BME280;34876;51.464;-0.150;2023-06-26T09:48:14;101897.52;;;25.85;40.68
49063;BME280;34876;51.464;-0.150;2023-06-26T09:50:43;101904.35;;;26.02;41.13
49063;BME280;34876;51.464;-0.150;2023-06-26T09:53:13;101907.37;;;26.04;41.26
49063;BME280;34876;51.464;-0.150;2023-06-26T09:55:41;101907.48;;;25.91;41.41
49063;BME280;34876;51.464;-0.150;2023-06-26T09:58:11;101903.17;;;26.11;41.15
49063;BME280;34876;51.464;-0.150;2023-06-26T10:00:41;101904.52;;;26.05;35.31
49063;BME280;34876;51.464;-0.150;2023-06-26T10:03:11;101913.37;;;26.34;40.65
49063;BME280;34876;51.464;-0.150;2023-06-26T10:05:40;101914.52;;;26.13;40.99
49063;BME280;34876;51.464;-0.150;2023-06-26T10:08:09;101920.32;;;26.03;41.18
49063;BME280;34876;51.464;-0.150;2023-06-26T10:10:41;101928.31;;;26.01;40.76
49063;BME280;34876;51.464;-0.150;2023-06-26T10:13:15;101922.58;;;26.03;41.13
49063;BME280;34876;51.464;-0.150;2023-06-26T10:15:50;101921.67;;;25.80;31.83
49063;BME280;34876;51.464;-0.150;2023-06-26T10:18:21;101929.25;;;25.78;33.45
49063;BME280;34876;51.464;-0.150;2023-06-26T10:20:56;101923.33;;;26.01;41.14
49063;BME280;34876;51.464;-0.150;2023-06-26T10:23:26;101929.17;;;25.52;41.58
49063;BME280;34876;51.464;-0.150;2023-06-26T10:25:59;101925.55;;;25.61;41.72
49063;BME280;34876;51.464;-0.150;2023-06-26T10:28:31;101928.95;;;24.68;43.19
49063;BME280;34876;51.464;-0.150;2023-06-26T10:31:01;101933.12;;;25.47;41.29
49063;BME280;34876;51.464;-0.150;2023-06-26T10:33:33;101930.35;;;25.89;41.24
49063;BME280;34876;51.464;-0.150;2023-06-26T10:36:19;101925.53;;;26.04;40.99
49063;BME280;34876;51.464;-0.150;2023-06-26T10:38:49;101925.03;;;25.96;39.20
49063;BME280;34876;51.464;-0.150;2023-06-26T10:41:20;101930.16;;;25.70;34.41
49063;BME280;34876;51.464;-0.150;2023-06-26T10:43:50;101933.38;;;26.13;40.62
49063;BME280;34876;51.464;-0.150;2023-06-26T10:46:22;101933.21;;;26.12;40.67
49063;BME280;34876;51.464;-0.150;2023-06-26T10:48:59;101943.16;;;25.79;33.28
49063;BME280;34876;51.464;-0.150;2023-06-26T10:51:29;101936.88;;;25.95;40.66
49063;BME280;34876;51.464;-0.150;2023-06-26T10:54:01;101937.40;;;26.21;40.45
49063;BME280;34876;51.464;-0.150;2023-06-26T10:56:47;101928.44;;;26.24;40.48
49063;BME280;34876;51.464;-0.150;2023-06-26T10:59:19;101938.86;;;25.91;40.39
49063;BME280;34876;51.464;-0.150;2023-06-26T11:01:55;101945.91;;;26.05;40.40
49063;BME280;34876;51.464;-0.150;2023-06-26T11:04:37;101939.73;;;26.05;40.91
49063;BME280;34876;51.464;-0.150;2023-06-26T11:07:23;101944.66;;;25.82;41.72
49063;BME280;34876;51.464;-0.150;2023-06-26T11:10:00;101943.15;;;25.64;38.31
49063;BME280;34876;51.464;-0.150;2023-06-26T11:12:35;101938.15;;;25.80;41.55
49063;BME280;34876;51.464;-0.150;2023-06-26T11:15:08;101936.45;;;25.86;41.67
49063;BME280;34876;51.464;-0.150;2023-06-26T11:17:38;101936.52;;;25.85;41.79
49063;BME280;34876;51.464;-0.150;2023-06-26T11:20:10;101943.02;;;25.85;41.62
49063;BME280;34876;51.464;-0.150;2023-06-26T11:22:40;101941.87;;;25.77;41.86
49063;BME280;34876;51.464;-0.150;2023-06-26T11:25:10;101938.95;;;25.80;41.83
49063;BME280;34876;51.464;-0.150;2023-06-26T11:27:45;101942.29;;;25.81;41.81
49063;BME280;34876;51.464;-0.150;2023-06-26T11:30:23;101943.06;;;25.84;41.68
49063;BME280;34876;51.464;-0.150;2023-06-26T11:32:53;101955.12;;;25.81;41.73
49063;BME280;34876;51.464;-0.150;2023-06-26T11:35:23;101953.82;;;25.88;41.51
49063;BME280;34876;51.464;-0.150;2023-06-26T11:37:55;101960.23;;;25.85;41.56
49063;BME280;34876;51.464;-0.150;2023-06-26T11:40:25;101951.41;;;25.89;41.41
49063;BME280;34876;51.464;-0.150;2023-06-26T11:42:55;101951.80;;;25.95;41.26
49063;BME280;34876;51.464;-0.150;2023-06-26T11:45:24;101952.74;;;25.88;41.36
49063;BME280;34876;51.464;-0.150;2023-06-26T11:47:54;101962.95;;;25.80;41.41
49063;BME280;34876;51.464;-0.150;2023-06-26T11:50:24;101966.04;;;25.66;32.55
49063;BME280;34876;51.464;-0.150;2023-06-26T11:52:53;101962.50;;;25.84;41.21
49063;BME280;34876;51.464;-0.150;2023-06-26T11:55:22;101968.29;;;25.88;39.86
49063;BME280;34876;51.464;-0.150;2023-06-26T11:57:54;101968.42;;;25.78;41.23
49063;BME280;34876;51.464;-0.150;2023-06-26T12:00:24;101973.02;;;25.56;30.35
49063;BME280;34876;51.464;-0.150;2023-06-26T12:02:53;101971.98;;;25.79;31.25
49063;BME280;34876;51.464;-0.150;2023-06-26T12:05:23;101968.58;;;25.62;41.22
49063;BME280;34876;51.464;-0.150;2023-06-26T12:07:52;101975.25;;;25.75;41.26
49063;BME280;34876;51.464;-0.150;2023-06-26T12:10:21;101969.35;;;25.62;39.66
49063;BME280;34876;51.464;-0.150;2023-06-26T12:12:50;101974.26;;;25.69;40.97
49063;BME280;34876;51.464;-0.150;2023-06-26T12:15:21;101978.66;;;25.65;41.34
49063;BME280;34876;51.464;-0.150;2023-06-26T12:17:53;101985.21;;;25.77;37.38
49063;BME280;34876;51.464;-0.150;2023-06-26T12:20:23;101981.96;;;25.48;34.35
49063;BME280;34876;51.464;-0.150;2023-06-26T12:22:53;101972.71;;;25.67;41.21
49063;BME280;34876;51.464;-0.150;2023-06-26T12:25:23;101970.68;;;25.56;41.22
49063;BME280;34876;51.464;-0.150;2023-06-26T12:27:53;101976.48;;;25.62;41.22
49063;BME280;34876;51.464;-0.150;2023-06-26T12:30:22;101968.84;;;25.34;37.38
49063;BME280;34876;51.464;-0.150;2023-06-26T12:32:51;101970.05;;;25.71;41.24
49063;BME280;34876;51.464;-0.150;2023-06-26T12:35:21;101974.14;;;25.76;40.92
49063;BME280;34876;51.464;-0.150;2023-06-26T12:37:54;101975.88;;;25.71;40.11
49063;BME280;34876;51.464;-0.150;2023-06-26T12:40:22;101966.44;;;25.64;36.98
49063;BME280;34876;51.464;-0.150;2023-06-26T12:42:55;101977.14;;;25.61;40.91
49063;BME280;34876;51.464;-0.150;2023-06-26T12:45:23;101964.64;;;25.64;40.98
49063;BME280;34876;51.464;-0.150;2023-06-26T12:47:52;101967.76;;;25.62;40.80
49063;BME280;34876;51.464;-0.150;2023-06-26T12:50:22;101966.62;;;25.67;40.80
49063;BME280;34876;51.464;-0.150;2023-06-26T12:52:51;101961.88;;;25.61;40.97
49063;BME280;34876;51.464;-0.150;2023-06-26T12:55:20;101955.99;;;25.55;41.07
49063;BME280;34876;51.464;-0.150;2023-06-26T12:57:49;101957.43;;;25.36;37.14
49063;BME280;34876;51.464;-0.150;2023-06-26T13:00:19;101961.45;;;25.48;41.04